createdAt,value
2023-05-24T04:22:28.951Z,26.81
2023-05-24T04:23:35.703Z,26.79
2023-05-24T04:24:48.299Z,26.13
2023-05-24T04:25:51.943Z,25.97
2023-05-24T04:26:57.001Z,27.02
2023-05-24T04:31:21.280Z,28.91
2023-05-24T04:32:23.696Z,30.07
2023-05-24T04:33:27.814Z,30.52
2023-05-24T04:34:34.451Z,30.49
2023-05-24T04:35:38.366Z,31.11
2023-05-24T04:36:41.412Z,30.55
2023-05-24T04:37:46.724Z,30.57
2023-05-24T04:38:49.196Z,31.53
2023-05-24T04:39:51.844Z,32.11
2023-05-24T04:40:53.917Z,31.08
2023-05-24T04:41:58.594Z,31.72
2023-05-24T04:43:01.310Z,30.67
2023-05-24T04:44:03.457Z,30.86
2023-05-24T04:45:05.853Z,29.63
2023-05-24T04:46:09.549Z,30.48
2023-05-24T04:47:12.962Z,30.27
2023-05-24T04:48:42.514Z,28.75
2023-05-24T04:49:47.172Z,28.87
2023-05-24T04:50:51.680Z,29.40
2023-05-24T04:51:55.287Z,30.43
2023-05-24T04:53:02.298Z,29.65
2023-05-24T04:55:27.554Z,28.80
2023-05-24T04:56:30.730Z,29.23
2023-05-24T04:57:37.863Z,29.78
2023-05-24T04:58:39.947Z,31.01
2023-05-24T04:59:42.027Z,31.54
2023-05-24T05:00:44.898Z,32.05
2023-05-24T05:01:47.739Z,31.36
2023-05-24T05:02:51.794Z,31.05
2023-05-24T05:03:54.037Z,31.00
2023-05-24T05:04:56.359Z,30.51
2023-05-24T05:05:58.506Z,30.76
2023-05-24T05:07:00.430Z,28.81
2023-05-24T05:08:04.024Z,28.29
2023-05-24T05:09:10.489Z,27.50
2023-05-24T05:10:12.622Z,26.63
2023-05-24T05:11:14.973Z,26.20
2023-05-24T05:12:17.174Z,25.33
2023-05-24T05:13:19.228Z,25.05
2023-05-24T05:14:21.589Z,25.06
2023-05-24T05:15:24.313Z,24.48
2023-05-24T05:16:26.323Z,24.19
2023-05-24T05:17:28.709Z,23.97
2023-05-24T05:18:30.750Z,23.97
2023-05-24T05:19:32.700Z,23.72
2023-05-24T05:20:34.911Z,23.40
2023-05-24T05:21:37.129Z,23.38
2023-05-24T05:22:45.614Z,23.33
2023-05-24T05:23:47.423Z,23.02
2023-05-24T05:24:49.794Z,23.11
2023-05-24T05:25:52.107Z,22.73
2023-05-24T05:26:54.158Z,22.63
2023-05-24T05:27:57.185Z,22.47
2023-05-24T05:28:59.502Z,22.84
2023-05-24T05:30:01.435Z,22.66
2023-05-24T05:31:06.560Z,22.83
2023-05-24T05:32:08.529Z,22.76
2023-05-24T05:33:10.911Z,22.58
2023-05-24T05:34:14.526Z,22.29
2023-05-24T05:35:16.628Z,22.28
2023-05-24T05:36:19.198Z,22.41
2023-05-24T05:37:21.324Z,22.07
2023-05-24T05:38:23.365Z,22.05
2023-05-24T05:39:25.230Z,22.17
2023-05-24T05:40:27.042Z,21.89
2023-05-24T05:41:29.017Z,22.14
2023-05-24T05:42:34.839Z,21.89
2023-05-24T05:43:37.388Z,21.95
2023-05-24T05:44:39.435Z,21.89
2023-05-24T05:45:42.685Z,21.79
2023-05-24T05:46:46.404Z,21.79
2023-05-24T05:47:48.821Z,22.01
2023-05-24T05:48:50.748Z,22.41
2023-05-24T05:49:52.827Z,22.55
2023-05-24T05:50:54.906Z,22.64
2023-05-24T05:51:56.858Z,23.18
2023-05-24T05:52:58.918Z,23.09
2023-05-24T05:54:00.939Z,22.93
2023-05-24T05:55:02.930Z,22.85
2023-05-24T05:56:06.372Z,23.10
2023-05-24T05:57:10.694Z,23.41
2023-05-24T05:58:12.816Z,23.76
2023-05-24T05:59:19.587Z,23.82
2023-05-24T06:00:22.646Z,23.54
2023-05-24T06:01:24.850Z,23.92
2023-05-24T06:02:27.127Z,23.77
2023-05-24T06:03:30.846Z,23.83
2023-05-24T06:04:33.195Z,23.91
2023-05-24T06:05:35.224Z,23.78
2023-05-24T06:06:37.509Z,24.56
2023-05-24T06:07:39.741Z,24.33
2023-05-24T06:08:41.996Z,24.50
2023-05-24T06:09:43.887Z,24.62
2023-05-24T06:10:46.004Z,24.18
2023-05-24T06:11:48.268Z,23.46
2023-05-24T06:12:50.540Z,23.35
2023-05-24T06:13:52.752Z,23.18
2023-05-24T06:14:57.586Z,23.40
2023-05-24T06:16:00.641Z,23.31
2023-05-24T06:17:02.967Z,23.06
2023-05-24T06:18:07.198Z,22.89
2023-05-24T06:19:09.333Z,23.17
2023-05-24T06:20:15.655Z,23.14
2023-05-24T06:21:17.956Z,23.11
2023-05-24T06:22:21.660Z,22.91
2023-05-24T06:23:23.743Z,22.93
2023-05-24T06:24:26.074Z,22.80
2023-05-24T06:25:30.900Z,22.42
2023-05-24T06:26:32.896Z,22.60
2023-05-24T06:27:35.072Z,22.29
2023-05-24T06:28:38.622Z,22.76
2023-05-24T06:29:40.763Z,22.38
2023-05-24T06:30:42.943Z,22.68
2023-05-24T06:31:47.374Z,22.92
2023-05-24T06:32:49.941Z,22.82
2023-05-24T06:34:02.525Z,22.71
2023-05-24T06:35:05.649Z,22.77
2023-05-24T06:36:07.749Z,22.90
2023-05-24T06:37:10.829Z,22.64
2023-05-24T06:38:14.132Z,23.48
2023-05-24T06:39:17.890Z,23.15
2023-05-24T06:40:20.007Z,23.12
2023-05-24T06:41:24.071Z,23.23
2023-05-24T06:42:26.104Z,22.99
2023-05-24T06:43:33.481Z,22.99
2023-05-24T06:44:35.685Z,23.17
2023-05-24T06:45:38.012Z,23.51
2023-05-24T06:46:40.166Z,23.44
2023-05-24T06:47:42.206Z,23.98
2023-05-24T06:48:44.689Z,23.76
2023-05-24T06:49:48.146Z,23.75
2023-05-24T06:50:50.555Z,23.77
2023-05-24T06:51:53.088Z,23.95
2023-05-24T06:52:55.813Z,24.09
2023-05-24T06:53:59.007Z,23.88
2023-05-24T06:55:01.175Z,23.33
2023-05-24T06:56:03.848Z,23.30
2023-05-24T06:57:06.387Z,23.30
2023-05-24T06:58:15.666Z,23.36
2023-05-24T06:59:18.078Z,23.33
2023-05-24T07:00:20.644Z,23.06
2023-05-24T07:01:23.547Z,23.12
2023-05-24T07:02:27.569Z,23.16
2023-05-24T07:03:32.225Z,22.65
2023-05-24T07:04:37.724Z,22.61
2023-05-24T07:05:41.448Z,22.67
2023-05-24T07:06:43.946Z,22.49
2023-05-24T07:08:30.192Z,22.52
2023-05-24T07:09:32.392Z,22.89
2023-05-24T07:10:36.163Z,22.91
2023-05-24T07:11:41.181Z,23.11
2023-05-24T07:12:43.448Z,23.29
2023-05-24T07:13:49.042Z,23.27
2023-05-24T07:14:51.802Z,23.22
2023-05-24T07:15:53.997Z,23.21
2023-05-24T07:16:57.670Z,23.27
2023-05-24T07:18:04.942Z,23.42
2023-05-24T07:19:07.772Z,23.12
2023-05-24T07:20:11.371Z,23.07
2023-05-24T07:21:13.549Z,23.37
2023-05-24T07:22:20.082Z,23.29
2023-05-24T07:23:23.431Z,23.28
2023-05-24T07:24:25.861Z,23.08
2023-05-24T07:25:29.104Z,23.36
2023-05-24T07:26:32.008Z,22.71
2023-05-24T07:27:34.932Z,23.23
2023-05-24T07:28:39.297Z,23.40
2023-05-24T07:29:43.727Z,23.38
2023-05-24T07:30:48.610Z,23.76
2023-05-24T07:31:52.716Z,23.87
2023-05-24T07:32:56.243Z,23.75
2023-05-24T07:33:59.703Z,23.57
2023-05-24T07:35:01.784Z,23.69
2023-05-24T07:36:07.514Z,23.99
2023-05-24T07:37:10.722Z,24.02
2023-05-24T07:38:15.093Z,23.78
2023-05-24T07:39:18.601Z,23.85
2023-05-24T07:40:21.648Z,23.94
2023-05-24T07:41:31.582Z,23.90
2023-05-24T07:42:35.237Z,23.42
2023-05-24T07:43:38.581Z,23.95
2023-05-24T07:44:41.551Z,24.13
2023-05-24T07:45:45.112Z,24.19
2023-05-24T07:46:47.476Z,23.78
2023-05-24T07:47:49.807Z,24.17
2023-05-24T07:48:52.643Z,24.09
2023-05-24T07:49:55.175Z,23.94
2023-05-24T07:51:01.883Z,23.89
2023-05-24T07:52:04.708Z,23.58
2023-05-24T07:53:07.715Z,23.47
2023-05-24T07:54:12.990Z,23.61
2023-05-24T07:55:15.496Z,23.63
2023-05-24T07:56:18.036Z,23.63
2023-05-24T07:57:20.863Z,23.65
2023-05-24T07:58:28.693Z,23.86
2023-05-24T07:59:31.104Z,23.81
2023-05-24T08:00:34.194Z,23.75
2023-05-24T08:01:37.181Z,23.70
2023-05-24T08:02:40.023Z,23.74
2023-05-24T08:03:44.054Z,23.75
2023-05-24T08:04:46.653Z,23.79
2023-05-24T08:05:48.833Z,24.02
2023-05-24T08:06:50.989Z,24.06
2023-05-24T08:07:53.678Z,24.09
2023-05-24T08:08:56.697Z,24.25
2023-05-24T08:09:58.623Z,24.52
2023-05-24T08:11:02.121Z,24.41
2023-05-24T08:12:05.950Z,24.65
2023-05-24T08:13:09.311Z,24.85
2023-05-24T08:14:11.922Z,24.98
2023-05-24T08:15:13.874Z,24.40
2023-05-24T08:16:16.332Z,24.76
2023-05-24T08:17:18.234Z,24.37
2023-05-24T08:18:20.352Z,24.52
2023-05-24T08:19:22.282Z,24.57
2023-05-24T08:20:24.251Z,24.71
2023-05-24T08:21:27.512Z,24.70
2023-05-24T08:22:29.394Z,24.45
2023-05-24T08:23:34.132Z,24.46
2023-05-24T08:24:36.064Z,24.37
2023-05-24T08:25:38.111Z,24.33
2023-05-24T08:26:40.507Z,24.50
2023-05-24T08:27:42.858Z,24.61
2023-05-24T08:28:45.837Z,24.65
2023-05-24T08:29:47.866Z,24.73
2023-05-24T08:30:50.222Z,24.82
2023-05-24T08:31:52.536Z,24.79
2023-05-24T08:32:58.324Z,24.85
2023-05-24T08:34:02.737Z,25.10
2023-05-24T08:35:19.513Z,24.94
2023-05-24T08:36:22.661Z,25.61
2023-05-24T08:37:24.880Z,25.47
2023-05-24T08:38:27.245Z,25.38
2023-05-24T08:39:29.344Z,25.36
2023-05-24T08:40:33.852Z,25.65
2023-05-24T08:41:37.759Z,25.56
2023-05-24T08:42:41.205Z,25.32
2023-05-24T08:43:46.576Z,25.19
2023-05-24T08:44:56.068Z,25.52
2023-05-24T08:45:59.738Z,25.29
2023-05-24T08:47:03.638Z,25.22
2023-05-24T08:48:08.493Z,25.38
2023-05-24T08:49:13.841Z,25.57
2023-05-24T08:50:16.392Z,25.40
2023-05-24T08:51:19.161Z,25.57
2023-05-24T08:52:22.424Z,25.40
2023-05-24T08:53:26.407Z,25.34
2023-05-24T08:54:29.271Z,25.48
2023-05-24T08:55:33.234Z,25.40
2023-05-24T08:56:37.478Z,25.05
2023-05-24T08:57:41.610Z,24.97
2023-05-24T08:58:47.344Z,25.26
2023-05-24T08:59:49.700Z,25.13
2023-05-24T09:00:51.947Z,25.24
2023-05-24T09:02:04.868Z,25.14
2023-05-24T09:03:08.382Z,25.07
2023-05-24T09:04:11.727Z,24.94
2023-05-24T09:05:17.136Z,24.87
2023-05-24T09:06:19.555Z,25.06
2023-05-24T09:07:25.840Z,24.80
2023-05-24T09:08:35.267Z,24.84
2023-05-24T09:09:45.783Z,24.81
2023-05-24T09:10:54.914Z,24.68
2023-05-24T09:12:02.363Z,24.48
2023-05-24T09:13:09.612Z,24.72
2023-05-24T09:14:12.298Z,24.83
2023-05-24T09:15:35.812Z,24.88
2023-05-24T09:16:38.189Z,25.07
2023-05-24T09:17:43.595Z,25.04
2023-05-24T09:18:45.984Z,24.72
2023-05-24T09:19:50.683Z,24.81
2023-05-24T09:20:53.342Z,24.69
2023-05-24T09:21:57.052Z,24.61
2023-05-24T09:22:59.711Z,24.51
2023-05-24T09:24:02.162Z,24.67
2023-05-24T09:25:08.461Z,24.73
2023-05-24T09:26:11.630Z,24.66
2023-05-24T09:27:22.375Z,24.84
2023-05-24T09:28:25.134Z,24.90
2023-05-24T09:29:27.314Z,25.13
2023-05-24T09:30:29.451Z,24.73
2023-05-24T09:31:36.109Z,25.13
2023-05-24T09:32:38.470Z,25.30
2023-05-24T09:33:40.938Z,25.57
2023-05-24T09:34:44.441Z,26.10
2023-05-24T09:35:49.318Z,26.02
2023-05-24T09:36:53.783Z,26.13
2023-05-24T09:38:01.831Z,26.41
2023-05-24T09:39:12.193Z,26.28
2023-05-24T09:40:20.682Z,25.97
2023-05-24T09:41:23.811Z,25.66
2023-05-24T09:42:31.205Z,25.82
2023-05-24T09:43:35.506Z,25.88
2023-05-24T09:44:38.142Z,25.64
2023-05-24T09:45:46.821Z,25.70
2023-05-24T09:46:49.652Z,25.55
2023-05-24T09:47:52.940Z,25.46
2023-05-24T09:49:00.399Z,25.41
2023-05-24T09:50:04.730Z,25.37
2023-05-24T09:51:14.297Z,25.44
2023-05-24T09:52:16.690Z,25.07
2023-05-24T09:53:23.957Z,24.98
2023-05-24T09:54:27.013Z,25.04
2023-05-24T09:55:29.796Z,25.05
2023-05-24T09:56:36.008Z,25.24
2023-05-24T09:57:38.215Z,24.98
2023-05-24T09:58:40.580Z,25.12
2023-05-24T09:59:45.633Z,25.10
2023-05-24T10:00:48.163Z,25.18
2023-05-24T10:01:54.168Z,24.89
2023-05-24T10:03:04.967Z,25.20
2023-05-24T10:04:09.948Z,25.05
2023-05-24T10:05:15.926Z,24.99
2023-05-24T10:06:18.849Z,25.33
2023-05-24T10:07:21.356Z,25.37
2023-05-24T10:08:25.834Z,25.48
2023-05-24T10:09:34.218Z,25.60
2023-05-24T10:10:36.808Z,25.54
2023-05-24T10:11:40.222Z,25.76
2023-05-24T10:12:47.141Z,25.92
2023-05-24T10:13:49.826Z,25.64
2023-05-24T10:14:57.616Z,25.70
2023-05-24T10:16:00.676Z,25.55
2023-05-24T10:17:05.654Z,25.83
2023-05-24T10:18:11.356Z,26.17
2023-05-24T10:19:17.089Z,25.50
2023-05-24T10:20:19.378Z,25.62
2023-05-24T10:21:23.786Z,25.38
2023-05-24T10:22:27.036Z,25.58
2023-05-24T10:23:38.723Z,25.59
2023-05-24T10:24:50.500Z,25.62
2023-05-24T10:26:00.191Z,25.73
2023-05-24T10:27:07.777Z,25.75
2023-05-24T10:28:13.001Z,25.68
2023-05-24T10:29:36.794Z,25.93
2023-05-24T10:30:53.097Z,25.95
2023-05-24T10:31:55.935Z,25.95
2023-05-24T10:33:00.020Z,26.03
2023-05-24T10:34:08.713Z,25.33
2023-05-24T10:35:12.684Z,25.44
2023-05-24T10:36:16.400Z,25.60
2023-05-24T10:37:18.474Z,25.61
2023-05-24T10:38:23.190Z,25.78
2023-05-24T10:39:26.960Z,25.68
2023-05-24T10:40:29.261Z,25.90
2023-05-24T10:41:40.100Z,25.90
2023-05-24T10:42:45.054Z,25.92
2023-05-24T10:44:00.699Z,26.04
2023-05-24T10:45:27.585Z,25.66
2023-05-24T10:46:29.736Z,25.84
2023-05-24T10:47:32.724Z,25.84
2023-05-24T10:48:41.135Z,25.52
2023-05-24T10:49:54.303Z,25.76
2023-05-24T10:50:57.476Z,25.94
2023-05-24T10:52:08.271Z,25.80
2023-05-24T10:53:22.488Z,25.77
2023-05-24T10:54:27.287Z,25.71
2023-05-24T10:55:29.526Z,25.67
2023-05-24T10:56:31.443Z,25.80
2023-05-24T10:57:34.205Z,25.83
2023-05-24T10:58:59.200Z,25.53
2023-05-24T11:00:48.293Z,25.48
2023-05-24T11:01:58.285Z,25.15
2023-05-24T11:03:12.987Z,24.96
2023-05-24T11:04:18.347Z,25.18
2023-05-24T11:05:21.143Z,25.04
2023-05-24T11:06:48.447Z,24.80
2023-05-24T11:07:58.791Z,24.64
2023-05-24T11:09:01.218Z,24.58
2023-05-24T11:10:09.766Z,24.79
2023-05-24T11:11:25.831Z,24.75
2023-05-24T11:12:33.025Z,24.73
2023-05-24T11:13:34.996Z,24.93
2023-05-24T11:14:40.129Z,24.59
2023-05-24T11:15:51.211Z,24.55
2023-05-24T11:16:53.345Z,24.66
2023-05-24T11:18:12.745Z,24.37
2023-05-24T11:19:18.593Z,24.67
2023-05-24T11:20:21.076Z,24.68
2023-05-24T11:21:23.723Z,24.69
2023-05-24T11:22:26.926Z,24.55
2023-05-24T11:23:29.225Z,24.57
2023-05-24T11:24:32.478Z,24.61
2023-05-24T11:25:37.337Z,24.82
2023-05-24T11:26:40.279Z,24.73
2023-05-24T11:27:44.790Z,24.83
2023-05-24T11:28:47.941Z,24.68
2023-05-24T11:29:49.995Z,24.33
2023-05-24T11:30:51.890Z,24.49
2023-05-24T11:31:57.911Z,24.26
2023-05-24T11:33:01.932Z,24.10
2023-05-24T11:34:04.181Z,24.14
2023-05-24T11:35:08.955Z,24.29
2023-05-24T11:36:11.474Z,24.18
2023-05-24T11:37:16.083Z,24.13
2023-05-24T11:38:23.462Z,24.15
2023-05-24T11:39:35.541Z,24.11
2023-05-24T11:40:39.143Z,23.99
2023-05-24T11:41:41.194Z,23.89
2023-05-24T11:42:44.471Z,23.98
2023-05-24T11:43:47.148Z,23.89
2023-05-24T11:44:50.227Z,23.75
2023-05-24T11:45:52.887Z,23.79
2023-05-24T11:46:59.567Z,23.59
2023-05-24T11:48:05.399Z,23.64
2023-05-24T11:49:15.030Z,23.58
2023-05-24T11:50:25.349Z,23.59
2023-05-24T11:51:33.812Z,23.71
2023-05-24T11:52:41.681Z,23.51
2023-05-24T11:53:46.324Z,23.61
2023-05-24T11:54:49.829Z,23.53
2023-05-24T11:55:54.475Z,23.46
2023-05-24T11:56:56.590Z,23.35
2023-05-24T11:58:01.983Z,23.38
2023-05-24T11:59:14.417Z,23.42
2023-05-24T12:00:24.563Z,23.46
2023-05-24T12:01:27.464Z,23.53
2023-05-24T12:02:32.434Z,23.69
2023-05-24T12:03:34.560Z,23.66
2023-05-24T12:04:36.877Z,23.74
2023-05-24T12:05:38.898Z,23.84
2023-05-24T12:06:44.839Z,23.88
2023-05-24T12:07:48.969Z,23.97
2023-05-24T12:08:51.247Z,23.98
2023-05-24T12:09:53.127Z,23.94
2023-05-24T12:10:55.126Z,24.17
2023-05-24T12:11:58.827Z,24.20
2023-05-24T12:13:03.426Z,24.03
2023-05-24T12:14:05.901Z,24.27
2023-05-24T12:15:08.711Z,24.31
2023-05-24T12:16:13.148Z,24.24
2023-05-24T12:17:18.039Z,24.39
2023-05-24T12:18:21.350Z,24.45
2023-05-24T12:19:32.994Z,24.52
2023-05-24T12:20:39.159Z,24.38
2023-05-24T12:21:42.660Z,24.55
2023-05-24T12:22:55.970Z,24.48
2023-05-24T12:24:10.033Z,24.59
2023-05-24T12:25:15.905Z,24.69
2023-05-24T12:26:22.356Z,24.78
2023-05-24T12:27:34.879Z,24.71
2023-05-24T12:28:39.333Z,24.69
2023-05-24T12:29:44.206Z,24.71
2023-05-24T12:30:50.094Z,24.73
2023-05-24T12:31:53.201Z,24.67
2023-05-24T12:32:57.333Z,24.47
2023-05-24T12:33:59.895Z,24.66
2023-05-24T12:35:04.383Z,24.79
2023-05-24T12:36:07.755Z,24.72
2023-05-24T12:37:12.668Z,24.75
2023-05-24T12:38:19.935Z,24.90
2023-05-24T12:39:31.337Z,24.56
2023-05-24T12:40:33.908Z,24.68
2023-05-24T12:41:36.691Z,24.55
2023-05-24T12:42:40.981Z,24.61
2023-05-24T12:43:44.828Z,24.47
2023-05-24T12:44:53.106Z,24.51
2023-05-24T12:45:56.155Z,24.36
2023-05-24T12:46:59.219Z,24.26
2023-05-24T12:48:04.658Z,24.47
2023-05-24T12:49:07.836Z,24.55
2023-05-24T12:50:10.468Z,24.73
2023-05-24T12:51:12.536Z,24.56
2023-05-24T12:52:14.842Z,24.41
2023-05-24T12:53:18.079Z,24.41
2023-05-24T12:54:23.479Z,24.42
2023-05-24T12:55:29.548Z,24.54
2023-05-24T12:56:32.302Z,24.49
2023-05-24T12:57:34.629Z,24.42
2023-05-24T12:58:36.822Z,24.40
2023-05-24T12:59:39.831Z,24.36
2023-05-24T13:00:45.052Z,24.20
2023-05-24T13:01:51.789Z,24.24
2023-05-24T13:02:59.828Z,24.43
2023-05-24T13:04:11.005Z,24.50
2023-05-24T13:05:13.958Z,24.46
2023-05-24T13:06:16.053Z,24.41
2023-05-24T13:07:18.427Z,24.48
2023-05-24T13:08:20.671Z,24.48
2023-05-24T13:09:23.742Z,24.48
2023-05-24T13:10:27.589Z,24.38
2023-05-24T13:11:31.223Z,24.26
2023-05-24T13:12:33.543Z,24.36
2023-05-24T13:13:35.763Z,24.33
2023-05-24T13:14:40.261Z,24.35
2023-05-24T13:15:46.198Z,24.32
2023-05-24T13:16:51.430Z,24.18
2023-05-24T13:17:53.854Z,24.26
2023-05-24T13:18:55.979Z,24.27
2023-05-24T13:19:59.771Z,24.17
2023-05-24T13:21:01.750Z,24.19
2023-05-24T13:22:04.407Z,24.17
2023-05-24T13:23:06.374Z,24.05
2023-05-24T13:24:09.656Z,23.93
2023-05-24T13:25:11.810Z,24.02
2023-05-24T13:26:14.490Z,23.89
2023-05-24T13:27:16.691Z,23.93
2023-05-24T13:28:18.699Z,23.89
2023-05-24T13:29:36.706Z,23.91
2023-05-24T13:30:42.115Z,23.94
2023-05-24T13:31:45.317Z,23.99
2023-05-24T13:32:47.654Z,24.06
2023-05-24T13:33:49.639Z,24.06
2023-05-24T13:34:52.611Z,23.98
2023-05-24T13:35:55.201Z,23.90
2023-05-24T13:37:00.319Z,24.01
2023-05-24T13:38:02.317Z,23.94
2023-05-24T13:39:14.282Z,24.14
2023-05-24T13:40:18.496Z,24.12
2023-05-24T13:41:21.070Z,24.22
2023-05-24T13:42:23.312Z,24.31
2023-05-24T13:43:25.687Z,24.30
2023-05-24T13:44:28.181Z,24.41
2023-05-24T13:45:30.483Z,24.43
2023-05-24T13:46:36.556Z,24.44
2023-05-24T13:47:41.571Z,24.27
2023-05-24T13:48:43.727Z,24.33
2023-05-24T13:49:46.017Z,24.32
2023-05-24T13:50:48.127Z,24.39
2023-05-24T13:51:54.871Z,24.39
2023-05-24T13:53:00.829Z,24.39
2023-05-24T13:54:05.005Z,24.37
2023-05-24T13:55:07.869Z,24.29
2023-05-24T13:56:10.217Z,24.35
2023-05-24T13:57:12.345Z,24.45
2023-05-24T13:58:14.413Z,24.40
2023-05-24T13:59:17.168Z,24.40
2023-05-24T14:00:22.378Z,24.42
2023-05-24T14:01:24.502Z,24.44
2023-05-24T14:02:29.087Z,24.21
2023-05-24T14:03:31.150Z,24.26
2023-05-24T14:04:33.522Z,24.26
2023-05-24T14:05:35.527Z,24.23
2023-05-24T14:06:37.853Z,24.22
2023-05-24T14:07:39.794Z,24.33
2023-05-24T14:08:42.662Z,24.15
2023-05-24T14:09:45.390Z,24.17
2023-05-24T14:10:50.007Z,24.27
2023-05-24T14:11:52.757Z,24.20
2023-05-24T14:13:12.741Z,24.21
2023-05-24T14:15:21.629Z,24.30
2023-05-24T14:16:24.777Z,24.29
2023-05-24T14:17:26.909Z,24.38
2023-05-24T14:18:28.811Z,24.12
2023-05-24T14:19:31.064Z,24.12
2023-05-24T14:20:34.002Z,24.21
2023-05-24T14:21:36.504Z,24.14
2023-05-24T14:22:38.528Z,24.15
2023-05-24T14:23:40.510Z,24.01
2023-05-24T14:24:46.662Z,23.99
2023-05-24T14:25:48.558Z,23.82
2023-05-24T14:26:50.419Z,23.81
2023-05-24T14:27:52.361Z,23.83
2023-05-24T14:28:56.399Z,23.78
2023-05-24T14:29:59.183Z,23.97
2023-05-24T14:31:02.233Z,24.06
2023-05-24T14:32:04.545Z,24.04
2023-05-24T14:33:08.089Z,24.08
2023-05-24T14:34:11.272Z,24.03
2023-05-24T14:35:13.490Z,23.95
2023-05-24T14:36:15.905Z,23.91
2023-05-24T14:37:18.501Z,24.01
2023-05-24T14:38:20.713Z,23.89
2023-05-24T14:39:22.906Z,23.97
2023-05-24T14:40:24.801Z,24.05
2023-05-24T14:41:26.831Z,23.93
2023-05-24T14:42:29.564Z,23.96
2023-05-24T14:43:31.670Z,23.85
2023-05-24T14:44:33.761Z,23.87
2023-05-24T14:45:35.653Z,23.84
2023-05-24T14:46:37.796Z,23.80
2023-05-24T14:47:39.769Z,23.76
2023-05-24T14:48:41.889Z,23.75
2023-05-24T14:49:44.026Z,23.75
2023-05-24T14:50:46.015Z,23.67
2023-05-24T14:51:50.865Z,23.61
2023-05-24T14:52:55.150Z,23.63
2023-05-24T14:53:57.560Z,23.61
2023-05-24T14:54:59.607Z,23.69
2023-05-24T14:56:03.859Z,23.63
2023-05-24T14:57:07.938Z,23.62
2023-05-24T14:58:11.753Z,23.66
2023-05-24T14:59:14.651Z,23.62
2023-05-24T15:00:22.176Z,23.56
2023-05-24T15:01:25.178Z,23.63
2023-05-24T15:02:27.911Z,23.54
2023-05-24T15:03:30.089Z,23.58
2023-05-24T15:04:33.384Z,23.52
2023-05-24T15:05:36.466Z,23.60
2023-05-24T15:06:38.821Z,23.64
2023-05-24T15:07:40.872Z,23.56
2023-05-24T15:08:43.093Z,23.62
2023-05-24T15:09:45.662Z,23.61
2023-05-24T15:10:48.029Z,23.66
2023-05-24T15:11:50.102Z,23.62
2023-05-24T15:12:52.293Z,23.64
2023-05-24T15:13:58.551Z,23.58
2023-05-24T15:15:05.042Z,23.57
2023-05-24T15:16:07.254Z,23.48
2023-05-24T15:17:10.296Z,23.40
2023-05-24T15:18:12.588Z,23.47
2023-05-24T15:19:18.388Z,23.53
2023-05-24T15:20:26.198Z,23.56
2023-05-24T15:21:28.224Z,23.37
2023-05-24T15:22:30.214Z,23.42
2023-05-24T15:23:34.800Z,23.49
2023-05-24T15:25:00.773Z,23.31
2023-05-24T15:26:08.219Z,23.34
2023-05-24T15:27:10.785Z,23.43
2023-05-24T15:28:14.643Z,23.44
2023-05-24T15:29:17.277Z,23.39
2023-05-24T15:30:19.937Z,23.44
2023-05-24T15:31:22.278Z,23.46
2023-05-24T15:32:26.899Z,23.32
2023-05-24T15:33:28.822Z,23.40
2023-05-24T15:34:31.103Z,23.37
2023-05-24T15:35:32.958Z,23.45
2023-05-24T15:36:35.042Z,23.53
2023-05-24T15:37:37.000Z,23.55
2023-05-24T15:38:39.091Z,23.50
2023-05-24T15:39:40.971Z,23.47
2023-05-24T15:40:43.446Z,23.44
2023-05-24T15:41:45.539Z,23.41
2023-05-24T15:42:47.621Z,23.42
2023-05-24T15:43:52.287Z,23.30
2023-05-24T15:44:54.609Z,23.36
2023-05-24T15:45:56.506Z,23.29
2023-05-24T15:46:58.479Z,23.30
2023-05-24T15:48:01.831Z,23.20
2023-05-24T15:49:04.159Z,23.25
2023-05-24T15:50:07.922Z,23.18
2023-05-24T15:52:15.308Z,23.12
2023-05-24T15:53:18.707Z,23.15
2023-05-24T15:54:22.479Z,23.13
2023-05-24T15:55:26.842Z,23.15
2023-05-24T15:56:29.213Z,23.11
2023-05-24T15:57:31.437Z,23.13
2023-05-24T15:58:33.303Z,23.18
2023-05-24T15:59:38.788Z,23.17
2023-05-24T16:00:40.875Z,23.17
2023-05-24T16:01:43.098Z,23.19
2023-05-24T16:02:45.463Z,23.20
2023-05-24T16:03:47.601Z,23.23
2023-05-24T16:04:50.235Z,23.20
2023-05-24T16:05:52.427Z,23.10
2023-05-24T16:06:54.221Z,23.16
2023-05-24T16:07:56.275Z,23.14
2023-05-24T16:08:58.160Z,23.13
2023-05-24T16:10:00.584Z,23.14
2023-05-24T16:11:04.809Z,23.15
2023-05-24T16:12:07.398Z,23.10
2023-05-24T16:13:09.404Z,23.06
2023-05-24T16:14:11.504Z,23.04
2023-05-24T16:15:14.803Z,23.08
2023-05-24T16:16:16.758Z,23.11
2023-05-24T16:17:18.892Z,23.07
2023-05-24T16:18:23.746Z,23.09
2023-05-24T16:19:28.508Z,23.08
2023-05-24T16:20:31.783Z,23.09
2023-05-24T16:21:33.708Z,23.12
2023-05-24T16:22:36.866Z,23.11
2023-05-24T16:23:38.850Z,23.06
2023-05-24T16:24:44.131Z,22.98
2023-05-24T16:25:46.401Z,22.91
2023-05-24T16:26:48.487Z,22.87
2023-05-24T16:27:50.486Z,22.87
2023-05-24T16:28:52.437Z,22.86
2023-05-24T16:29:56.687Z,22.77
2023-05-24T16:30:58.901Z,22.83
2023-05-24T16:32:01.513Z,22.80
2023-05-24T16:33:03.995Z,22.82
2023-05-24T16:34:05.914Z,22.86
2023-05-24T16:35:08.180Z,22.82
2023-05-24T16:36:10.837Z,22.77
2023-05-24T16:37:13.329Z,22.79
2023-05-24T16:38:15.290Z,22.75
2023-05-24T16:39:17.915Z,22.72
2023-05-24T16:40:20.318Z,22.71
2023-05-24T16:41:23.260Z,22.74
2023-05-24T16:42:26.060Z,22.70
2023-05-24T16:43:27.941Z,22.68
2023-05-24T16:44:30.439Z,22.67
2023-05-24T16:45:33.814Z,22.60
2023-05-24T16:46:36.670Z,22.61
2023-05-24T16:47:38.788Z,22.56
2023-05-24T16:48:41.074Z,22.56
2023-05-24T16:49:43.448Z,22.54
2023-05-24T16:50:45.683Z,22.50
2023-05-24T16:51:47.722Z,22.49
2023-05-24T16:52:49.701Z,22.47
2023-05-24T16:53:51.749Z,22.44
2023-05-24T16:54:54.098Z,22.36
2023-05-24T16:55:57.216Z,22.39
2023-05-24T16:56:59.539Z,22.39
2023-05-24T16:58:01.601Z,22.40
2023-05-24T16:59:04.170Z,22.35
2023-05-24T17:00:07.660Z,22.34
2023-05-24T17:01:10.077Z,22.29
2023-05-24T17:02:12.133Z,22.27
2023-05-24T17:03:14.554Z,22.25
2023-05-24T17:04:16.458Z,22.25
2023-05-24T17:05:18.473Z,22.23
2023-05-24T17:06:20.447Z,22.16
2023-05-24T17:07:23.095Z,22.18
2023-05-24T17:08:25.964Z,22.11
2023-05-24T17:09:27.929Z,22.12
2023-05-24T17:10:29.969Z,22.10
2023-05-24T17:11:31.864Z,22.04
2023-05-24T17:12:34.018Z,22.07
2023-05-24T17:13:36.188Z,22.09
2023-05-24T17:14:38.113Z,22.04
2023-05-24T17:15:40.204Z,22.07
2023-05-24T17:16:42.193Z,22.03
2023-05-24T17:17:44.367Z,22.02
2023-05-24T17:18:46.435Z,22.04
2023-05-24T17:19:48.346Z,22.02
2023-05-24T17:20:51.369Z,21.99
2023-05-24T17:21:53.210Z,21.99
2023-05-24T17:22:55.838Z,21.97
2023-05-24T17:23:57.798Z,21.99
2023-05-24T17:24:59.821Z,21.98
2023-05-24T17:26:02.877Z,21.97
2023-05-24T17:27:05.240Z,21.96
2023-05-24T17:28:07.128Z,21.93
2023-05-24T17:29:09.374Z,21.90
2023-05-24T17:30:11.926Z,21.90
2023-05-24T17:31:17.379Z,21.90
2023-05-24T17:32:19.276Z,21.93
2023-05-24T17:33:25.639Z,21.91
2023-05-24T17:34:27.597Z,21.94
2023-05-24T17:35:29.805Z,21.91
2023-05-24T17:36:33.699Z,21.92
2023-05-24T17:37:36.127Z,21.91
2023-05-24T17:38:38.139Z,21.89
2023-05-24T17:39:40.097Z,21.91
2023-05-24T17:40:43.433Z,21.92
2023-05-24T17:41:46.138Z,21.92
2023-05-24T17:42:51.825Z,21.93
2023-05-24T17:43:53.981Z,21.91
2023-05-24T17:44:56.117Z,21.89
2023-05-24T17:46:08.419Z,21.91
2023-05-24T17:47:10.940Z,21.95
2023-05-24T17:48:12.951Z,21.96
2023-05-24T17:49:15.702Z,21.96
2023-05-24T17:50:17.844Z,21.91
2023-05-24T17:51:19.734Z,21.88
2023-05-24T17:52:21.876Z,21.91
2023-05-24T17:54:32.170Z,21.86
2023-05-24T17:55:36.092Z,21.88
2023-05-24T17:56:38.012Z,21.85
2023-05-24T17:57:40.153Z,21.86
2023-05-24T17:58:46.152Z,21.87
2023-05-24T17:59:49.727Z,21.86
2023-05-24T18:00:52.058Z,21.83
2023-05-24T18:01:54.147Z,21.86
2023-05-24T18:02:56.141Z,21.86
2023-05-24T18:03:58.003Z,21.85
2023-05-24T18:05:00.222Z,21.84
2023-05-24T18:06:04.140Z,21.87
2023-05-24T18:07:07.056Z,21.86
2023-05-24T18:08:10.015Z,21.87
2023-05-24T18:09:13.275Z,21.85
2023-05-24T18:10:15.420Z,21.86
2023-05-24T18:11:18.534Z,21.83
2023-05-24T18:12:20.525Z,21.84
2023-05-24T18:13:22.909Z,21.85
2023-05-24T18:14:24.754Z,21.83
2023-05-24T18:15:27.380Z,21.81